KWMC/WMC METAR and TAF weather

Enter ICAO airport designator
Station Type Date Time Source
KWMC METAR 2021/08/01 16:56 UTC NOAA

KWMC 011656Z AUTO 19008KT 10SM CLR 22/13 A3026 RMK AO2 SLP203 T02220128 $


Station Type Date Time Source
KWMC Decoded METAR 2021/08/01 16:56 UTC NOAA

WINNEMUCCA MUNICIPAL AIRPORT, NV, United States (KWMC) 40-54N 117-48W 1310M
Aug 01, 2021 - 12:56 PM EDT / 2021.08.01 1656 UTC
Wind: from the S (190 degrees) at 9 MPH (8 KT):0
Visibility: 10 mile(s):0
Sky conditions: clear
Temperature: 72.0 F (22.2 C)
Dew Point: 55.0 F (12.8 C)
Relative Humidity: 55%
Pressure (altimeter): 30.26 in. Hg (1024 hPa)
ob: KWMC 011656Z AUTO 19008KT 10SM CLR 22/13 A3026 RMK AO2 SLP203 T02220128
cycle: 17

Station Type Date Time Source
KWMC TAF 2021/08/01 18:27 UTC NOAA

TAF KWMC 011725Z 0118/0218 VRB06KT P6SM VCSH SCT080 BKN150 OVC250
FM012000 26009KT P6SM VCTS SCT080CB BKN120 BKN200
TEMPO 0123/0203 VRB15G30KT
FM020300 19010G20KT P6SM FEW100 BKN200
FM020600 VRB05KT P6SM SCT100 BKN200
FM021700 26007KT P6SM SCT090

Example: see airport list